• Join FlightAware (Why Join?)
  • Login
  • US Flag 
12:12AM EDT


 

Airport Tracker/Info


-or-


 

Live Flight TrackerFlight Track Log ✈ SWA15 ✈ 03-May-2012 ✈ KLAS - KMCI

Flight Track Log - Related Links

Times and Time Zones

All times are in EDT time to prevent confusion due to time zone crossing. See the SWA15 flight status page for this flight to view local times or setup timezone preferences in your user account.

Time Position Orientation Groundspeed Altitude Reporting Facility
EDT Latitude Longitude Course Direction KTS MPH feet Rate Location/Type
09:30PM 36.1833 -115.0819 233° Southwest  Level FlightAware Approximate
09:31PM 36.2216 -114.9504 240° Southwest  Level FlightAware Approximate
09:32PM 36.1915 -114.8266 252° West  Level FlightAware Approximate
09:33PM 36.1935 -114.6881 256° West  Level FlightAware Approximate
09:34PM 36.1833 -114.5489 260° West  Level FlightAware Approximate
09:35PM 36.1833 -114.4091 261° West  Level FlightAware Approximate
09:36PM 36.1833 -114.2693 263° West  Level FlightAware Approximate
09:37PM 36.1927 -114.1301 263° West  Level FlightAware Approximate
09:38PM 36.2141 -113.9934 263° West  Level FlightAware Approximate
09:39PM 36.2288 -113.8559 263° West  Level FlightAware Approximate
09:40PM 36.2463 -113.7178 263° West  Level FlightAware Approximate
09:41PM 36.2912 -113.5893 261° West  Level FlightAware Approximate
09:42PM 36.0775 -115.2528 324° Northwest 219 252 5,600  Level Los Angeles Center
09:43PM 36.1278 -115.2986 47° Northeast 227 261 8,700 2,820 Climbing Los Angeles Center
09:44PM 36.1794 -115.2311 80° East 173 199 11,300 2,160 Climbing Los Angeles Center
09:45PM 36.1953 -115.1178 88° East 239 275 13,100 2,100 Climbing Los Angeles Center
09:46PM 36.1983 -114.9864 90° East 320 368 15,500 2,580 Climbing Los Angeles Center
09:47PM 36.1992 -114.8475 89° East 363 418 18,300 2,640 Climbing Los Angeles Center
09:48PM 36.2017 -114.7033 92° East 398 458 20,800 2,400 Climbing Los Angeles Center
09:49PM 36.1978 -114.5514 90° East 419 482 23,200 2,160 Climbing Los Angeles Center
09:50PM 36.1978 -114.3997 90° East 432 497 25,200 1,800 Climbing Los Angeles Center
09:51PM 36.1972 -114.2272 82° East 440 506 26,900 1,620 Climbing Los Angeles Center
09:52PM 36.2156 -114.0647 80° East 458 527 28,500 1,500 Climbing Los Angeles Center
09:53PM 36.2378 -113.8994 83° East 470 541 29,900 1,320 Climbing Los Angeles Center
09:54PM 36.2553 -113.7264 80° East 487 560 31,200 1,560 Climbing Los Angeles Center
09:55PM 36.2789 -113.5556 83° East 498 573 33,100 1,800 Climbing Los Angeles Center
09:56PM 36.2961 -113.3903 82° East 498 573 34,800 1,740 Climbing Los Angeles Center
09:57PM 36.3153 -113.2272 76° East 490 564 36,600 1,500 Climbing Los Angeles Center
09:58PM 36.3469 -113.0686 76° East 476 548 37,800 1,020 Climbing Los Angeles Center
09:59PM 36.3783 -112.9128 77° East 470 541 38,700 600 Climbing Los Angeles Center
10:00PM 36.4075 -112.7542 77° East 470 541 39,000 120 Climbing Los Angeles Center
10:01PM 36.4364 -112.5931 76° East 470 541 39,000  Level Los Angeles Center
10:02PM 36.4636 -112.4550 77° East 470 541 39,000  Level Los Angeles Center
10:03PM 36.4919 -112.2961 77° East 470 541 39,000  Level Los Angeles Center
10:04PM 36.5206 -112.1397 78° East 470 541 39,000  Level Los Angeles Center
10:06PM 36.5739 -111.8200 77° East 479 551 39,000  Level Denver Center
10:07PM 36.6044 -111.6592 78° East 479 551 39,000  Level Denver Center
10:08PM 36.6300 -111.5033 77° East 474 545 39,000  Level Denver Center
10:09PM 36.6572 -111.3603 79° East 474 545 39,000  Level Denver Center
10:10PM 36.6825 -111.2042 77° East 468 539 39,000  Level Denver Center
10:11PM 36.7122 -111.0431 78° East 468 539 39,000  Level Denver Center
10:12PM 36.7392 -110.8842 79° East 468 539 39,000  Level Denver Center
10:13PM 36.7642 -110.7250 78° East 468 539 39,000  Level Denver Center
10:14PM 36.7908 -110.5661 78° East 468 539 39,000  Level Denver Center
10:15PM 36.8172 -110.4067 78° East 468 539 39,000  Level Denver Center
10:16PM 36.8461 -110.2319 75° East 468 539 39,000  Level Denver Center
10:17PM 36.8806 -110.0756 79° East 468 539 39,000  Level Denver Center
10:18PM 36.9036 -109.9314 78° East 468 539 39,000  Level Denver Center
10:19PM 36.9292 -109.7769 79° East 468 539 39,000  Level Denver Center
10:20PM 36.9547 -109.6067 79° East 468 539 39,000  Level Denver Center
10:21PM 36.9800 -109.4467 79° East 463 533 39,000  Level Denver Center
10:22PM 37.0047 -109.2919 79° East 463 533 39,000  Level Denver Center
10:23PM 37.0269 -109.1497 80° East 463 533 39,000  Level Denver Center
10:24PM 37.0517 -108.9764 78° East 463 533 39,000  Level Denver Center
10:25PM 37.0781 -108.8214 80° East 463 533 39,000  Level Denver Center
10:26PM 37.1000 -108.6633 79° East 463 533 39,000  Level Denver Center
10:27PM 37.1214 -108.5208 79° East 463 533 39,000  Level Denver Center
10:28PM 37.1450 -108.3653 79° East 463 533 39,000  Level Denver Center
10:29PM 37.1706 -108.1942 80° East 463 533 39,000  Level Denver Center
10:30PM 37.1917 -108.0436 81° East 457 526 39,000  Level Denver Center
10:31PM 37.2100 -107.9006 80° East 457 526 39,000  Level Denver Center
10:32PM 37.2328 -107.7447 79° East 452 520 39,000  Level Denver Center
10:33PM 37.2575 -107.5783 81° East 445 512 39,000  Level Denver Center
10:34PM 37.2778 -107.4247 81° East 445 512 39,000  Level Denver Center
10:35PM 37.2953 -107.2894 80° East 445 512 39,000  Level Denver Center
10:36PM 37.3172 -107.1383 81° East 445 512 39,000  Level Denver Center
10:37PM 37.3389 -106.9742 80° East 445 512 39,000  Level Denver Center
10:38PM 37.3603 -106.8228 81° East 439 505 39,000  Level Denver Center
10:39PM 37.3772 -106.6897 81° East 431 496 39,000  Level Denver Center
10:40PM 37.3964 -106.5408 80° East 423 487 39,000  Level Denver Center
10:41PM 37.4192 -106.3789 82° East 428 493 39,000  Level Denver Center
10:42PM 37.4356 -106.2272 79° East 433 498 39,000  Level Denver Center
10:43PM 37.4561 -106.0914 81° East 433 498 39,000  Level Denver Center
10:44PM 37.4744 -105.9422 82° East 433 498 39,000  Level Denver Center
10:45PM 37.4922 -105.7747 82° East 427 491 39,000  Level Denver Center
10:46PM 37.5100 -105.6200 81° East 432 497 39,000  Level Denver Center
10:47PM 37.5275 -105.4864 79° East 432 497 39,000  Level Denver Center
10:48PM 37.5492 -105.3397 82° East 427 491 39,000  Level Denver Center
10:49PM 37.5683 -105.1717 81° East 427 491 39,000  Level Denver Center
10:50PM 37.5872 -105.0194 81° East 427 491 39,000  Level Denver Center
10:51PM 37.6061 -104.8672 82° East 427 491 39,000  Level Denver Center
10:52PM 37.6208 -104.7306 82° East 432 497 39,000  Level Denver Center
10:53PM 37.6389 -104.5625 81° East 432 497 39,000  Level Denver Center
10:54PM 37.6569 -104.4100 81° East 431 496 39,000  Level Denver Center
10:55PM 37.6753 -104.2625 82° East 431 496 39,000  Level Denver Center
10:56PM 37.6911 -104.1256 82° East 431 496 39,000  Level Denver Center
10:57PM 37.7089 -103.9728 83° East 431 496 39,000  Level Denver Center
10:58PM 37.7242 -103.8203 83° East 437 503 39,000  Level Denver Center
10:59PM 37.7411 -103.6542 82° East 437 503 39,000  Level Denver Center
11:00PM 37.7581 -103.5014 82° East 432 497 39,000  Level Denver Center
11:01PM 37.7731 -103.3642 83° East 432 497 39,000  Level Denver Center
11:03PM 37.8008 -103.0808 83° East 458 527 39,000  Level Kansas City Center
11:04PM 37.8158 -102.9300 83° East 443 510 39,000  Level Kansas City Center
11:05PM 37.8297 -102.7922 83° East 443 510 39,000  Level Kansas City Center
11:06PM 37.8442 -102.6436 83° East 438 504 39,000  Level Kansas City Center
11:07PM 37.8597 -102.4744 82° East 438 504 39,000  Level Kansas City Center
11:08PM 37.8761 -102.3233 84° East 438 504 39,000  Level Kansas City Center
11:09PM 37.8869 -102.1878 83° East 438 504 39,000  Level Kansas City Center
11:10PM 37.9008 -102.0339 84° East 438 504 39,000  Level Kansas City Center
11:11PM 37.9156 -101.8667 83° East 438 504 39,000  Level Kansas City Center
11:12PM 37.9314 -101.7103 83° East 438 504 39,000  Level Kansas City Center
11:13PM 37.9439 -101.5719 84° East 443 510 39,000  Level Kansas City Center
11:14PM 37.9569 -101.4178 84° East 443 510 39,000  Level Kansas City Center
11:15PM 37.9711 -101.2450 83° East 443 510 39,000  Level Kansas City Center
11:16PM 37.9861 -101.0883 84° East 443 510 39,000  Level Kansas City Center
11:17PM 37.9989 -100.9286 85° East 443 510 39,000  Level Kansas City Center
11:18PM 38.0089 -100.7844 83° East 448 516 39,000  Level Kansas City Center
11:19PM 38.0236 -100.6222 85° East 459 528 39,000  Level Kansas City Center
11:20PM 38.0367 -100.4439 85° East 459 528 39,000  Level Kansas City Center
11:21PM 38.0486 -100.2839 85° East 459 528 39,000  Level Kansas City Center
11:22PM 38.0578 -100.1397 84° East 459 528 39,000  Level Kansas City Center
11:23PM 38.0714 -99.9772 85° East 459 528 39,000  Level Kansas City Center
11:24PM 38.0836 -99.7986 85° East 459 528 39,000  Level Kansas City Center
11:25PM 38.0950 -99.6356 85° East 459 528 39,000  Level Kansas City Center
11:26PM 38.1050 -99.4964 84° East 450 518 39,000  Level Kansas City Center
11:27PM 38.1181 -99.3311 85° East 450 518 39,000  Level Kansas City Center
11:28PM 38.1289 -99.1656 84° East 463 533 39,000  Level Kansas City Center
11:29PM 38.1417 -98.9972 86° East 463 533 39,000  Level Kansas City Center
11:30PM 38.1497 -98.8367 85° East 463 533 39,000  Level Kansas City Center
11:31PM 38.1617 -98.6708 86° East 463 533 39,000  Level Kansas City Center
11:32PM 38.1717 -98.5050 85° East 463 533 39,000  Level Kansas City Center
11:33PM 38.1833 -98.3392 86° East 463 533 39,000  Level Kansas City Center
11:34PM 38.1933 -98.1547 86° East 468 539 39,000  Level Kansas City Center
11:35PM 38.2025 -97.9833 86° East 474 545 39,000  Level Kansas City Center
11:36PM 38.2114 -97.8147 85° East 479 551 39,000  Level Kansas City Center
11:37PM 38.2225 -97.6433 87° East 479 551 39,000  Level Kansas City Center
11:38PM 38.2289 -97.4692 86° East 479 551 39,000  Level Kansas City Center
11:39PM 38.2372 -97.3003 86° East 479 551 39,000  Level Kansas City Center
11:40PM 38.2472 -97.1261 87° East 479 551 39,000  Level Kansas City Center
11:41PM 38.2531 -96.9544 85° East 479 551 39,000 -1,140 Level Kansas City Center
11:42PM 38.2647 -96.7803 89° East 479 551 36,800 -2,460 Descending Kansas City Center
11:43PM 38.2681 -96.6111 87° East 473 544 34,100 -2,700 Descending Kansas City Center
11:44PM 38.2747 -96.4581 86° East 483 556 31,500 -1,800 Descending Kansas City Center
11:45PM 38.2836 -96.2836 87° East 477 549 30,500 -960 Descending Kansas City Center
11:46PM 38.2903 -96.1092 85° East 486 559 29,600 -1,200 Descending Kansas City Center
11:47PM 38.3031 -95.9294 87° East 470 541 28,200 -1,200 Descending Kansas City Center
11:48PM 38.3086 -95.8106 81° East 440 506 27,300 -1,200 Descending Kansas City Center
11:49PM 38.3311 -95.6364 28° Northeast 419 482 25,800 -1,500 Descending Kansas City Center
11:50PM 38.4297 -95.5689 16° North 376 433 24,400 -1,500 Descending Kansas City Center
11:51PM 38.5428 -95.5281 18° North 393 452 22,900 -1,800 Descending Kansas City Center
11:52PM 38.6389 -95.4869 17° North 407 468 20,900 -2,160 Descending Kansas City Center
11:53PM 38.7539 -95.4431 33° Northeast 401 461 18,600 -2,160 Descending Kansas City Center
11:54PM 38.8422 -95.3694 48° Northeast 389 448 16,600 -1,980 Descending Kansas City Center
11:55PM 38.9136 -95.2664 49° Northeast 379 436 14,700 -1,920 Descending Kansas City Center
11:56PM 38.9747 -95.1761 47° Northeast 379 436 12,800 -1,500 Descending Kansas City Center
11:57PM 39.0503 -95.0700 47° Northeast 368 423 11,700 -1,440 Descending Kansas City Center
11:58PM 39.1175 -94.9769 39° Northeast 356 410 10,000 -960 Descending Kansas City Center
11:59PM 39.1761 -94.9156 18° North 320 368 9,800 -660 Descending Kansas City Center
12:00AM 39.2533 -94.8839 17° North 269 310 8,700 -1,200 Descending Kansas City Center
12:01AM 39.3200 -94.8575 18° North 260 299 7,400 -1,260 Descending Kansas City Center
12:02AM 39.3783 -94.8336 18° North 247 284 6,200 -1,320 Descending Kansas City Center
12:03AM 39.4472 -94.8042 39° Northeast 247 284 4,800 -1,080 Descending Kansas City Center
12:04AM 39.4975 -94.7506 124° Southeast 237 273 4,100 -960 Descending Kansas City Center
12:05AM 39.4725 -94.7022 171° South 151 174 2,900 -780 Descending Kansas City Center
12:06AM 39.4328 -94.6942 173° South 121 139 2,600 -300 Descending Kansas City Center
12:07AM 39.3667 -94.6833 201° Southwest 147 169 2,200 -420 Descending Kansas City TRACON
12:08AM 39.3333 -94.7000 201° Southwest 125 144 1,600 -600 Descending Kansas City TRACON